createdAt,value
2023-01-03T00:02:07.839Z,5.88
2023-01-03T00:04:35.595Z,6.22
2023-01-03T00:07:03.233Z,6.37
2023-01-03T00:09:30.794Z,6.41
2023-01-03T00:12:16.115Z,6.54
2023-01-03T00:14:44.879Z,6.56
2023-01-03T00:17:14.460Z,6.55
2023-01-03T00:19:43.970Z,6.50
2023-01-03T00:22:12.937Z,6.42
2023-01-03T00:24:40.818Z,6.29
2023-01-03T00:27:08.868Z,6.15
2023-01-03T00:29:37.425Z,6.28
2023-01-03T00:32:05.771Z,6.22
2023-01-03T00:34:35.139Z,6.06
2023-01-03T00:37:03.181Z,5.93
2023-01-03T00:39:30.970Z,5.63
2023-01-03T00:41:58.547Z,5.62
2023-01-03T00:44:26.109Z,5.49
2023-01-03T00:46:53.585Z,5.53
2023-01-03T00:49:21.509Z,5.94
2023-01-03T00:51:50.686Z,5.96
2023-01-03T00:54:18.247Z,6.11
2023-01-03T00:56:46.966Z,6.16
2023-01-03T00:59:16.513Z,6.25
2023-01-03T01:01:47.984Z,6.33
2023-01-03T01:04:18.622Z,6.36
2023-01-03T01:06:47.780Z,6.36
2023-01-03T01:09:20.461Z,6.37
2023-01-03T01:11:48.285Z,6.38
2023-01-03T01:14:22.319Z,6.41
2023-01-03T01:16:52.205Z,6.44
2023-01-03T01:19:21.770Z,6.46
2023-01-03T01:21:49.612Z,6.49
2023-01-03T01:24:18.850Z,6.48
2023-01-03T01:26:47.108Z,6.47
2023-01-03T01:29:15.931Z,6.51
2023-01-03T01:31:45.385Z,6.52
2023-01-03T01:34:13.488Z,6.53
2023-01-03T01:36:42.879Z,6.51
2023-01-03T01:39:13.044Z,6.53
2023-01-03T01:42:00.711Z,6.50
2023-01-03T01:44:55.336Z,6.49
2023-01-03T01:47:30.164Z,6.48
2023-01-03T01:50:02.480Z,6.47
2023-01-03T01:52:31.549Z,6.45
2023-01-03T01:54:59.722Z,6.44
2023-01-03T01:57:30.318Z,6.44
2023-01-03T01:59:58.381Z,6.45
2023-01-03T02:02:26.125Z,6.45
2023-01-03T02:04:55.503Z,6.40
2023-01-03T02:07:23.974Z,6.41
2023-01-03T02:09:55.903Z,6.40
2023-01-03T02:12:47.538Z,6.42
2023-01-03T02:15:25.288Z,6.41
2023-01-03T02:17:59.480Z,6.41
2023-01-03T02:20:37.506Z,6.39
2023-01-03T02:23:34.856Z,6.38
2023-01-03T02:26:35.127Z,6.39
2023-01-03T02:29:20.000Z,6.38
2023-01-03T02:31:53.977Z,6.38
2023-01-03T02:34:30.692Z,6.37
2023-01-03T02:37:03.774Z,6.36
2023-01-03T02:39:41.047Z,6.37
2023-01-03T02:42:30.170Z,6.35
2023-01-03T02:45:03.924Z,6.37
2023-01-03T02:47:36.440Z,6.35
2023-01-03T02:50:06.268Z,6.36
2023-01-03T02:52:33.946Z,6.34
2023-01-03T02:55:05.386Z,6.33
2023-01-03T02:57:37.610Z,6.36
2023-01-03T03:00:10.595Z,6.31
2023-01-03T03:02:46.003Z,6.32
2023-01-03T03:05:16.744Z,6.33
2023-01-03T03:07:44.582Z,6.33
2023-01-03T03:10:30.450Z,6.31
2023-01-03T03:13:14.603Z,6.33
2023-01-03T03:15:47.618Z,6.29
2023-01-03T03:18:19.512Z,6.26
2023-01-03T03:21:04.769Z,6.25
2023-01-03T03:23:53.114Z,6.25
2023-01-03T03:26:23.508Z,6.25
2023-01-03T03:28:54.179Z,6.23
2023-01-03T03:31:24.905Z,6.24
2023-01-03T03:33:56.306Z,6.23
2023-01-03T03:36:28.595Z,6.19
2023-01-03T03:38:56.339Z,6.16
2023-01-03T03:41:47.561Z,6.18
2023-01-03T03:44:40.236Z,6.20
2023-01-03T03:47:13.104Z,6.23
2023-01-03T03:49:43.398Z,6.24
2023-01-03T03:52:14.779Z,6.22
2023-01-03T03:54:47.054Z,6.18
2023-01-03T03:57:17.974Z,6.14
2023-01-03T03:59:48.044Z,5.97
2023-01-03T04:02:16.630Z,5.79
2023-01-03T04:04:48.875Z,5.66
2023-01-03T04:07:16.650Z,5.49
2023-01-03T04:09:44.323Z,5.44
2023-01-03T04:12:11.962Z,5.30
2023-01-03T04:14:39.627Z,5.04
2023-01-03T04:17:08.292Z,5.03
2023-01-03T04:19:35.924Z,5.10
2023-01-03T04:22:04.978Z,4.89
2023-01-03T04:24:32.820Z,4.82
2023-01-03T04:27:00.627Z,4.91
2023-01-03T04:29:28.298Z,4.94
2023-01-03T04:31:57.292Z,4.96
2023-01-03T04:34:25.216Z,4.93
2023-01-03T04:36:53.090Z,4.84
2023-01-03T04:39:22.209Z,4.82
2023-01-03T04:41:49.929Z,4.78
2023-01-03T04:44:16.610Z,4.74
2023-01-03T04:46:50.667Z,4.72
2023-01-03T04:49:20.415Z,4.80
2023-01-03T04:51:48.450Z,4.81
2023-01-03T04:54:16.380Z,4.81
2023-01-03T04:56:45.609Z,4.70
2023-01-03T04:59:13.614Z,4.58
2023-01-03T05:01:52.525Z,4.58
2023-01-03T05:04:20.564Z,4.61
2023-01-03T05:06:48.548Z,4.52
2023-01-03T05:09:16.428Z,4.45
2023-01-03T05:11:45.734Z,4.34
2023-01-03T05:14:14.612Z,4.40
2023-01-03T05:16:42.814Z,4.38
2023-01-03T05:19:10.444Z,4.42
2023-01-03T05:21:55.712Z,4.44
2023-01-03T05:24:52.152Z,4.44
2023-01-03T05:27:21.239Z,4.50
2023-01-03T05:29:50.801Z,4.48
2023-01-03T05:32:18.590Z,4.42
2023-01-03T05:34:46.622Z,4.41
2023-01-03T05:37:14.631Z,4.44
2023-01-03T05:39:42.329Z,4.50
2023-01-03T05:42:10.056Z,4.60
2023-01-03T05:44:39.210Z,4.72
2023-01-03T05:47:06.905Z,4.79
2023-01-03T05:49:35.659Z,4.83
2023-01-03T05:52:03.971Z,4.89
2023-01-03T05:54:31.640Z,5.01
2023-01-03T05:56:59.268Z,5.05
2023-01-03T05:59:27.133Z,5.12
2023-01-03T06:01:56.435Z,5.19
2023-01-03T06:04:24.454Z,5.25
2023-01-03T06:06:52.254Z,5.27
2023-01-03T06:09:19.856Z,5.28
2023-01-03T06:11:47.378Z,5.31
2023-01-03T06:14:15.202Z,5.34
2023-01-03T06:17:00.740Z,5.38
2023-01-03T06:19:29.804Z,5.40
2023-01-03T06:21:57.534Z,5.37
2023-01-03T06:24:25.334Z,5.29
2023-01-03T06:26:52.920Z,5.25
2023-01-03T06:29:20.567Z,5.18
2023-01-03T06:31:48.172Z,5.14
2023-01-03T06:34:16.064Z,5.16
2023-01-03T06:36:45.258Z,5.22
2023-01-03T06:39:12.995Z,5.27
2023-01-03T06:41:40.748Z,5.31
2023-01-03T06:44:08.332Z,5.31
2023-01-03T06:46:53.364Z,5.36
2023-01-03T06:49:38.697Z,5.40
2023-01-03T06:52:30.768Z,5.42
2023-01-03T06:54:58.361Z,5.45
2023-01-03T06:57:27.429Z,5.47
2023-01-03T06:59:55.778Z,5.48
2023-01-03T07:02:23.613Z,5.48
2023-01-03T07:04:51.679Z,5.49
2023-01-03T07:07:21.136Z,5.48
2023-01-03T07:09:48.894Z,5.49
2023-01-03T07:12:37.468Z,5.48
2023-01-03T07:15:06.352Z,5.51
2023-01-03T07:17:34.230Z,5.57
2023-01-03T07:20:01.851Z,5.59
2023-01-03T07:22:31.079Z,5.58
2023-01-03T07:24:58.656Z,5.61
2023-01-03T07:27:26.397Z,5.63
2023-01-03T07:29:54.094Z,5.68
2023-01-03T07:32:21.787Z,5.71
2023-01-03T07:34:49.503Z,5.69
2023-01-03T07:37:17.197Z,5.70
2023-01-03T07:39:46.316Z,5.69
2023-01-03T07:42:31.617Z,5.70
2023-01-03T07:44:59.395Z,5.68
2023-01-03T07:47:27.029Z,5.69
2023-01-03T07:49:54.648Z,5.74
2023-01-03T07:52:22.424Z,5.71
2023-01-03T07:54:51.644Z,5.68
2023-01-03T07:57:19.438Z,5.76
2023-01-03T07:59:47.197Z,5.66
2023-01-03T08:02:15.051Z,5.61
2023-01-03T08:04:43.004Z,5.54
2023-01-03T08:07:11.042Z,5.42
2023-01-03T08:09:56.294Z,5.28
2023-01-03T08:12:43.463Z,5.15
2023-01-03T08:15:11.683Z,4.97
2023-01-03T08:17:39.380Z,4.94
2023-01-03T08:20:08.535Z,4.69
2023-01-03T08:22:36.464Z,4.69
2023-01-03T08:25:04.615Z,4.65
2023-01-03T08:27:33.651Z,4.73
2023-01-03T08:30:01.947Z,4.53
2023-01-03T08:32:33.052Z,4.55
2023-01-03T08:35:01.165Z,4.65
2023-01-03T08:37:29.642Z,4.54
2023-01-03T08:40:00.160Z,4.37
2023-01-03T08:42:28.352Z,4.47
2023-01-03T08:45:03.632Z,4.47
2023-01-03T08:47:31.883Z,4.46
2023-01-03T08:50:01.669Z,4.53
2023-01-03T08:52:34.767Z,4.60
2023-01-03T08:55:03.770Z,4.61
2023-01-03T08:57:32.007Z,4.67
2023-01-03T09:00:01.127Z,4.74
2023-01-03T09:02:29.358Z,4.75
2023-01-03T09:05:00.691Z,4.92
2023-01-03T09:07:28.597Z,4.97
2023-01-03T09:09:56.783Z,5.08
2023-01-03T09:12:24.828Z,5.05
2023-01-03T09:14:52.945Z,5.27
2023-01-03T09:17:22.245Z,5.28
2023-01-03T09:19:49.893Z,5.36
2023-01-03T09:22:18.083Z,5.34
2023-01-03T09:24:46.048Z,5.30
2023-01-03T09:27:13.769Z,5.39
2023-01-03T09:29:41.489Z,5.39
2023-01-03T09:32:09.376Z,5.45
2023-01-03T09:34:38.650Z,5.51
2023-01-03T09:37:06.330Z,5.69
2023-01-03T09:39:34.531Z,5.66
2023-01-03T09:42:20.269Z,5.68
2023-01-03T09:44:48.169Z,5.85
2023-01-03T09:47:20.953Z,5.93
2023-01-03T09:50:18.754Z,6.01
2023-01-03T09:53:01.745Z,6.18
2023-01-03T09:55:51.283Z,6.32
2023-01-03T09:58:36.335Z,6.51
2023-01-03T10:01:34.202Z,6.68
2023-01-03T10:04:12.309Z,6.85
2023-01-03T10:06:54.377Z,6.92
2023-01-03T10:09:29.554Z,6.84
2023-01-03T10:12:05.042Z,6.97
2023-01-03T10:14:44.033Z,6.99
2023-01-03T10:17:19.793Z,7.11
2023-01-03T10:20:02.668Z,7.23
2023-01-03T10:22:33.293Z,7.26
2023-01-03T10:25:13.283Z,7.29
2023-01-03T10:27:46.813Z,7.26
2023-01-03T10:30:18.018Z,7.15
2023-01-03T10:32:57.661Z,7.16
2023-01-03T10:35:35.604Z,7.20
2023-01-03T10:38:05.310Z,7.13
2023-01-03T10:40:36.430Z,7.03
2023-01-03T10:43:14.273Z,6.98
2023-01-03T10:45:56.427Z,6.95
2023-01-03T10:48:25.360Z,6.96
2023-01-03T10:50:53.701Z,6.99
2023-01-03T10:53:24.070Z,7.09
2023-01-03T10:55:53.840Z,7.06
2023-01-03T10:58:29.241Z,7.12
2023-01-03T11:01:12.310Z,7.07
2023-01-03T11:03:51.255Z,7.07
2023-01-03T11:06:19.397Z,7.27
2023-01-03T11:08:50.606Z,7.38
2023-01-03T11:11:30.226Z,7.42
2023-01-03T11:14:24.694Z,7.61
2023-01-03T11:16:56.602Z,7.65
2023-01-03T11:19:28.612Z,7.61
2023-01-03T11:22:02.891Z,7.72
2023-01-03T11:24:56.797Z,7.70
2023-01-03T11:27:38.500Z,7.78
2023-01-03T11:30:17.708Z,7.88
2023-01-03T11:32:59.113Z,7.96
2023-01-03T11:35:45.723Z,7.99
2023-01-03T11:38:47.845Z,7.94
2023-01-03T11:41:29.668Z,7.94
2023-01-03T11:44:17.527Z,7.88
2023-01-03T11:46:56.670Z,7.89
2023-01-03T11:49:30.698Z,7.93
2023-01-03T11:52:18.646Z,7.89
2023-01-03T11:55:12.028Z,7.96
2023-01-03T11:57:49.087Z,7.98
2023-01-03T12:00:19.046Z,8.02
2023-01-03T12:03:13.939Z,8.01
2023-01-03T12:05:47.831Z,8.01
2023-01-03T12:08:38.442Z,7.98
2023-01-03T12:11:14.559Z,7.97
2023-01-03T12:13:50.945Z,7.94
2023-01-03T12:16:25.295Z,7.97
2023-01-03T12:18:56.611Z,7.99
2023-01-03T12:21:32.672Z,8.00
2023-01-03T12:24:06.540Z,7.97
2023-01-03T12:26:35.284Z,7.98
2023-01-03T12:29:06.622Z,8.03
2023-01-03T12:31:38.600Z,8.05
2023-01-03T12:34:13.515Z,8.05
2023-01-03T12:36:44.504Z,8.02
2023-01-03T12:39:33.333Z,8.05
2023-01-03T12:42:05.485Z,8.10
2023-01-03T12:44:37.676Z,8.12
2023-01-03T12:47:07.210Z,8.15
2023-01-03T12:49:37.479Z,8.19
2023-01-03T12:52:05.557Z,8.17
2023-01-03T12:54:39.905Z,8.17
2023-01-03T12:57:19.712Z,8.21
2023-01-03T13:00:08.163Z,8.30
2023-01-03T13:02:44.917Z,8.41
2023-01-03T13:05:17.605Z,8.40
2023-01-03T13:07:49.143Z,8.53
2023-01-03T13:10:18.942Z,8.54
2023-01-03T13:12:49.442Z,8.52
2023-01-03T13:15:31.559Z,8.59
2023-01-03T13:18:37.475Z,8.66
2023-01-03T13:21:38.758Z,8.63
2023-01-03T13:24:08.632Z,8.49
2023-01-03T13:26:36.479Z,8.45
2023-01-03T13:29:43.849Z,8.44
2023-01-03T13:32:18.618Z,8.48
2023-01-03T13:34:46.211Z,8.47
2023-01-03T13:37:18.874Z,8.48
2023-01-03T13:39:56.539Z,8.54
2023-01-03T13:42:28.155Z,8.59
2023-01-03T13:44:56.598Z,8.62
2023-01-03T13:47:28.213Z,8.67
2023-01-03T13:53:03.269Z,8.61
2023-01-03T13:55:35.128Z,8.62
2023-01-03T13:58:03.901Z,8.61
2023-01-03T14:00:33.027Z,8.68
2023-01-03T14:03:55.036Z,8.64
2023-01-03T14:06:48.028Z,8.59
2023-01-03T14:09:52.227Z,8.60
2023-01-03T14:13:01.993Z,8.61
2023-01-03T14:15:31.882Z,8.54
2023-01-03T14:18:02.209Z,8.56
2023-01-03T14:20:35.507Z,8.66
2023-01-03T14:23:24.016Z,8.64
2023-01-03T14:25:55.019Z,8.56
2023-01-03T14:28:24.680Z,8.57
2023-01-03T14:31:01.603Z,8.59
2023-01-03T14:33:33.038Z,8.55
2023-01-03T14:36:07.329Z,8.54
2023-01-03T14:38:37.088Z,8.54
2023-01-03T14:41:04.805Z,8.55
2023-01-03T14:43:37.361Z,8.57
2023-01-03T14:46:07.277Z,8.54
2023-01-03T14:48:35.578Z,8.55
2023-01-03T14:51:07.483Z,8.56
2023-01-03T14:53:36.243Z,8.55
2023-01-03T14:56:04.362Z,8.56
2023-01-03T14:58:34.528Z,8.56
2023-01-03T15:01:04.399Z,8.56
2023-01-03T15:03:34.391Z,8.54
2023-01-03T15:06:02.544Z,8.50
2023-01-03T15:08:32.694Z,8.48
2023-01-03T15:11:04.092Z,8.51
2023-01-03T15:13:34.508Z,8.52
2023-01-03T15:16:04.294Z,8.49
2023-01-03T15:18:35.640Z,8.50
2023-01-03T15:21:05.120Z,8.47
2023-01-03T15:23:41.904Z,8.46
2023-01-03T15:26:21.114Z,8.48
2023-01-03T15:28:53.953Z,8.47
2023-01-03T15:31:34.405Z,8.48
2023-01-03T15:34:05.441Z,8.54
2023-01-03T15:36:34.029Z,8.53
2023-01-03T15:39:03.348Z,8.57
2023-01-03T15:42:06.387Z,8.50
2023-01-03T15:44:39.163Z,8.56
2023-01-03T15:47:09.334Z,8.51
2023-01-03T16:08:48.266Z,8.25
2023-01-03T16:14:21.890Z,8.06
2023-01-03T16:16:53.391Z,8.09
2023-01-03T16:19:43.627Z,8.06
2023-01-03T16:22:47.066Z,7.83
2023-01-03T17:40:51.196Z,7.03
2023-01-03T17:43:22.368Z,7.00
2023-01-03T17:51:20.398Z,7.00
2023-01-03T17:53:54.155Z,6.98
2023-01-03T17:56:27.238Z,7.07
2023-01-03T18:01:54.761Z,6.93
2023-01-03T18:04:44.041Z,6.99
2023-01-03T18:07:20.573Z,7.06
2023-01-03T18:09:53.453Z,7.16
2023-01-03T18:12:27.119Z,7.01
2023-01-03T18:15:01.527Z,7.16
2023-01-03T19:59:30.247Z,7.03
2023-01-03T20:02:23.945Z,7.03
2023-01-03T20:04:54.917Z,7.12
2023-01-03T20:07:47.019Z,7.10
2023-01-03T20:10:21.720Z,7.12
2023-01-03T20:16:01.014Z,7.24
2023-01-03T20:18:31.712Z,7.15
2023-01-03T20:21:02.765Z,7.18
2023-01-03T20:23:38.307Z,7.26
2023-01-03T20:26:44.707Z,7.13
2023-01-03T21:13:17.610Z,6.69
2023-01-03T21:15:49.078Z,6.77
2023-01-03T21:18:17.568Z,6.70
2023-01-03T21:20:45.929Z,6.63
2023-01-03T21:23:17.643Z,6.76
2023-01-03T21:25:45.472Z,6.67
2023-01-03T21:28:15.159Z,6.49
2023-01-03T21:30:43.267Z,6.47
2023-01-03T21:33:15.881Z,6.43
2023-01-03T21:35:43.505Z,6.45
2023-01-03T21:38:11.184Z,6.51
2023-01-03T21:40:38.892Z,6.49
2023-01-03T21:43:06.705Z,6.41
2023-01-03T21:45:37.552Z,6.37
2023-01-03T21:48:07.461Z,6.40
2023-01-03T21:50:36.345Z,6.34
2023-01-03T21:53:04.108Z,6.24
2023-01-03T21:55:31.866Z,6.18
2023-01-03T21:57:59.981Z,6.24
2023-01-03T22:00:27.781Z,6.24
2023-01-03T22:03:14.356Z,6.29
2023-01-03T22:05:42.126Z,6.45
2023-01-03T22:08:10.077Z,6.34
2023-01-03T22:10:37.770Z,6.44
2023-01-03T22:13:08.089Z,6.25
2023-01-03T22:15:37.294Z,6.38
2023-01-03T22:18:09.103Z,6.36
2023-01-03T22:20:39.041Z,6.26
2023-01-03T22:23:08.458Z,6.41
2023-01-03T22:25:36.205Z,6.47
2023-01-03T22:28:03.997Z,6.44
2023-01-03T22:30:31.771Z,6.37
2023-01-03T22:32:59.687Z,6.51
2023-01-03T22:35:28.754Z,6.50
2023-01-03T22:37:57.254Z,6.46
2023-01-03T22:40:25.044Z,6.46
2023-01-03T22:42:52.628Z,6.51
2023-01-03T22:45:20.140Z,6.38
2023-01-03T22:47:47.719Z,6.45
2023-01-03T22:50:15.465Z,6.47
2023-01-03T22:52:44.382Z,6.46
2023-01-03T22:55:12.148Z,6.59
2023-01-03T22:57:39.869Z,6.59
2023-01-03T23:00:10.590Z,6.52
2023-01-03T23:02:41.765Z,6.51
2023-01-03T23:05:10.381Z,6.55
2023-01-03T23:07:39.711Z,6.54
2023-01-03T23:10:11.143Z,6.54
2023-01-03T23:12:56.558Z,6.54
2023-01-03T23:15:24.152Z,6.63
2023-01-03T23:17:57.602Z,6.65
2023-01-03T23:20:27.717Z,6.68
2023-01-03T23:22:59.659Z,6.70
2023-01-03T23:25:29.778Z,6.87
2023-01-03T23:27:57.559Z,6.80
2023-01-03T23:30:25.476Z,6.83
2023-01-03T23:32:53.056Z,6.83
2023-01-03T23:35:20.575Z,6.83
2023-01-03T23:37:48.380Z,6.84
2023-01-03T23:40:16.444Z,6.85
2023-01-03T23:42:45.773Z,6.84
2023-01-03T23:45:13.383Z,6.90
2023-01-03T23:47:40.961Z,6.86
2023-01-03T23:50:09.163Z,6.91
2023-01-03T23:52:36.838Z,6.93
2023-01-03T23:55:11.916Z,6.97
2023-01-03T23:57:40.379Z,7.03
